createdAt,value
2017-12-22T00:00:08.002Z,84.72
2017-12-22T00:01:18.162Z,85.11
2017-12-22T00:02:28.240Z,85.01
2017-12-22T00:03:37.785Z,85.01
2017-12-22T00:04:47.586Z,84.82
2017-12-22T00:05:57.120Z,84.82
2017-12-22T00:07:07.250Z,84.82
2017-12-22T00:08:17.036Z,84.72
2017-12-22T00:09:27.145Z,84.72
2017-12-22T00:10:36.693Z,84.63
2017-12-22T00:11:46.763Z,85.01
2017-12-22T00:12:56.817Z,84.72
2017-12-22T00:14:06.886Z,84.63
2017-12-22T00:15:16.947Z,84.91
2017-12-22T00:16:27.029Z,85.01
2017-12-22T00:17:36.823Z,85.01
2017-12-22T00:18:46.936Z,84.82
2017-12-22T00:19:56.736Z,84.53
2017-12-22T00:21:06.817Z,84.63
2017-12-22T00:22:16.349Z,84.1
2017-12-22T00:23:26.140Z,84.1
2017-12-22T00:24:36.247Z,84.48
2017-12-22T00:25:46.297Z,84.01
2017-12-22T00:26:55.576Z,84.39
2017-12-22T00:28:05.430Z,84.2
2017-12-22T00:29:15.243Z,84.29
2017-12-22T00:30:25.290Z,84.1
2017-12-22T00:31:35.354Z,84.2
2017-12-22T00:32:45.406Z,84.39
2017-12-22T00:33:55.454Z,84.67
2017-12-22T00:35:05.512Z,84.58
2017-12-22T00:36:15.329Z,84.77
2017-12-22T00:37:25.378Z,84.77
2017-12-22T00:38:35.439Z,84.67
2017-12-22T00:39:45.230Z,84.86
2017-12-22T00:40:54.766Z,84.86
2017-12-22T00:42:04.903Z,84.67
2017-12-22T00:43:14.429Z,84.86
2017-12-22T00:44:24.502Z,84.86
2017-12-22T00:45:34.311Z,84.58
2017-12-22T00:46:44.135Z,84.86
2017-12-22T00:47:53.924Z,84.77
2017-12-22T00:49:03.995Z,84.67
2017-12-22T00:50:14.042Z,84.67
2017-12-22T00:51:24.123Z,84.67
2017-12-22T00:52:33.670Z,84.67
2017-12-22T00:53:43.473Z,84.58
2017-12-22T00:54:53.272Z,84.58
2017-12-22T00:56:03.061Z,84.29
2017-12-22T00:57:13.122Z,84.48
2017-12-22T00:58:22.902Z,84.39
2017-12-22T00:59:33.017Z,84.58
2017-12-22T01:00:43.066Z,84.39
2017-12-22T01:01:52.884Z,84.48
2017-12-22T01:03:02.932Z,84.39
2017-12-22T01:04:12.727Z,84.58
2017-12-22T01:05:22.578Z,84.67
2017-12-22T01:06:32.365Z,84.77
2017-12-22T01:07:42.158Z,84.48
2017-12-22T01:08:52.209Z,84.39
2017-12-22T01:10:01.742Z,84.29
2017-12-22T01:11:11.571Z,84.58
2017-12-22T01:12:21.637Z,84.58
2017-12-22T01:13:31.700Z,84.58
2017-12-22T01:14:41.482Z,84.39
2017-12-22T01:15:51.273Z,84.48
2017-12-22T01:17:01.075Z,84.01
2017-12-22T01:18:11.132Z,84.48
2017-12-22T01:19:20.649Z,84.67
2017-12-22T01:20:29.912Z,84.48
2017-12-22T01:21:39.708Z,84.58
2017-12-22T01:22:49.806Z,84.72
2017-12-22T01:23:59.351Z,84.58
2017-12-22T01:25:09.408Z,84.67
2017-12-22T01:26:19.456Z,84.77
2017-12-22T01:27:29.267Z,84.33
2017-12-22T01:28:39.104Z,84.77
2017-12-22T01:29:49.149Z,84.77
2017-12-22T01:30:58.688Z,84.77
2017-12-22T01:32:08.472Z,84.86
2017-12-22T01:33:18.530Z,85.34
2017-12-22T01:34:28.332Z,84.95
2017-12-22T01:35:38.387Z,85.15
2017-12-22T01:36:48.186Z,85.24
2017-12-22T01:37:57.729Z,85.05
2017-12-22T01:39:07.255Z,84.95
2017-12-22T01:40:17.141Z,84.77
2017-12-22T01:41:26.949Z,84.86
2017-12-22T01:42:37.000Z,84.77
2017-12-22T01:43:47.077Z,84.86
2017-12-22T01:44:56.918Z,84.86
2017-12-22T01:46:06.964Z,84.86
2017-12-22T01:47:17.009Z,84.77
2017-12-22T01:48:27.068Z,84.86
2017-12-22T01:49:36.600Z,84.86
2017-12-22T01:50:46.157Z,84.67
2017-12-22T01:51:55.946Z,84.86
2017-12-22T01:53:06.004Z,84.86
2017-12-22T01:54:16.058Z,84.86
2017-12-22T01:55:26.117Z,84.86
2017-12-22T01:56:35.900Z,84.77
2017-12-22T01:57:46.010Z,84.86
2017-12-22T01:58:56.077Z,84.77
2017-12-22T02:00:06.128Z,84.58
2017-12-22T02:01:16.181Z,84.86
2017-12-22T02:02:26.246Z,84.95
2017-12-22T02:03:36.392Z,84.95
2017-12-22T02:04:46.175Z,84.95
2017-12-22T02:05:55.955Z,84.95
2017-12-22T02:07:06.013Z,84.77
2017-12-22T02:08:16.077Z,84.86
2017-12-22T02:09:25.973Z,84.77
2017-12-22T02:10:36.027Z,84.77
2017-12-22T02:11:46.089Z,85.05
2017-12-22T02:12:56.875Z,84.95
2017-12-22T02:14:06.661Z,84.95
2017-12-22T02:15:16.721Z,85.05
2017-12-22T02:16:26.790Z,84.95
2017-12-22T02:17:36.839Z,84.95
2017-12-22T02:18:46.685Z,84.95
2017-12-22T02:19:56.473Z,84.95
2017-12-22T02:21:06.274Z,85.05
2017-12-22T02:22:16.060Z,85.19
2017-12-22T02:23:26.116Z,84.95
2017-12-22T02:24:36.177Z,84.81
2017-12-22T02:25:46.231Z,84.91
2017-12-22T02:26:56.279Z,84.91
2017-12-22T02:28:05.549Z,84.91
2017-12-22T02:29:15.616Z,85
2017-12-22T02:30:25.131Z,84.91
2017-12-22T02:31:34.914Z,84.81
2017-12-22T02:32:44.711Z,84.91
2017-12-22T02:33:54.531Z,84.91
2017-12-22T02:35:04.608Z,84.91
2017-12-22T02:36:14.397Z,84.91
2017-12-22T02:37:24.457Z,85.1
2017-12-22T02:38:34.565Z,85
2017-12-22T02:39:44.626Z,85.38
2017-12-22T02:40:54.423Z,85.1
2017-12-22T02:42:04.219Z,85.1
2017-12-22T02:43:14.012Z,85.66
2017-12-22T02:44:23.808Z,85.19
2017-12-22T02:45:33.883Z,85.57
2017-12-22T02:46:43.960Z,85.76
2017-12-22T02:47:53.799Z,85.28
2017-12-22T02:49:03.326Z,85.38
2017-12-22T02:50:13.368Z,85.38
2017-12-22T02:51:23.826Z,85.47
2017-12-22T02:52:33.636Z,85.47
2017-12-22T02:53:43.162Z,85.19
2017-12-22T02:54:52.949Z,85.19
2017-12-22T02:56:03.048Z,85.19
2017-12-22T02:57:12.841Z,85.19
2017-12-22T02:58:22.640Z,85.19
2017-12-22T02:59:32.724Z,85.33
2017-12-22T03:00:42.776Z,85.57
2017-12-22T03:01:52.633Z,85.9
2017-12-22T03:34:04.714Z,81.6
2017-12-22T03:35:14.759Z,81.65
2017-12-22T03:36:24.810Z,82.93
2017-12-22T03:37:34.603Z,83.5
2017-12-22T03:38:44.643Z,84.68
2017-12-22T03:39:55.736Z,85.25
2017-12-22T03:41:05.767Z,85.63
2017-12-22T03:42:16.006Z,86.01
2017-12-22T03:43:26.044Z,85.72
2017-12-22T03:44:35.840Z,86.11
2017-12-22T03:45:45.899Z,86.34
2017-12-22T03:46:55.692Z,86.24
2017-12-22T03:48:05.751Z,86.63
2017-12-22T03:49:15.564Z,85.96
2017-12-22T03:50:25.381Z,85.68
2017-12-22T03:51:35.481Z,86.86
2017-12-22T03:52:45.535Z,86.47
2017-12-22T03:53:55.392Z,86.1
2017-12-22T03:55:05.454Z,86
2017-12-22T03:56:15.511Z,86
2017-12-22T03:57:25.572Z,85.91
2017-12-22T03:58:35.622Z,86.33
2017-12-22T03:59:45.683Z,86.05
2017-12-22T04:00:55.764Z,85.86
2017-12-22T04:02:05.548Z,86.24
2017-12-22T04:03:15.606Z,86.05
2017-12-22T04:04:25.650Z,86.24
2017-12-22T04:05:35.707Z,85.95
2017-12-22T04:06:45.781Z,85.95
2017-12-22T04:07:55.826Z,85.76
2017-12-22T04:09:05.614Z,85.76
2017-12-22T04:10:15.147Z,85.76
2017-12-22T04:11:25.229Z,85.76
2017-12-22T04:12:35.048Z,85.76
2017-12-22T04:13:45.113Z,85.86
2017-12-22T04:14:55.162Z,85.86
2017-12-22T04:16:05.230Z,85.76
2017-12-22T04:17:15.034Z,85.61
2017-12-22T04:18:25.089Z,85.9
2017-12-22T04:19:35.141Z,85.52
2017-12-22T04:20:44.972Z,86.09
2017-12-22T04:21:55.021Z,85.8
2017-12-22T04:23:04.546Z,85.52
2017-12-22T04:24:14.618Z,85.52
2017-12-22T04:25:24.396Z,85.52
2017-12-22T04:26:34.202Z,85.52
2017-12-22T04:27:43.994Z,85.71
2017-12-22T04:28:54.101Z,85.71
2017-12-22T04:30:03.904Z,85.52
2017-12-22T04:31:14.217Z,85.33
2017-12-22T04:32:24.078Z,85.04
2017-12-22T04:33:34.146Z,85.33
2017-12-22T04:34:44.214Z,85.61
2017-12-22T04:35:54.261Z,84.85
2017-12-22T04:37:04.317Z,85.14
2017-12-22T04:38:14.373Z,85.04
2017-12-22T04:39:24.423Z,84.85
2017-12-22T04:40:34.233Z,85.04
2017-12-22T04:41:44.274Z,85.52
2017-12-22T04:42:54.327Z,85.71
2017-12-22T04:44:04.422Z,85.52
2017-12-22T04:45:14.494Z,85.71
2017-12-22T04:46:24.280Z,85.71
2017-12-22T04:47:34.327Z,85.71
2017-12-22T04:48:44.400Z,85.14
2017-12-22T04:49:54.448Z,85.52
2017-12-22T04:51:04.500Z,85.61
2017-12-22T04:52:14.545Z,85.52
2017-12-22T04:53:24.080Z,85.42
2017-12-22T04:54:33.887Z,85.24
2017-12-22T04:55:44.000Z,85.61
2017-12-22T04:56:53.796Z,85.52
2017-12-22T04:58:03.598Z,85.8
2017-12-22T04:59:13.659Z,85.8
2017-12-22T05:00:23.203Z,85.8
2017-12-22T05:01:33.294Z,85.71
2017-12-22T05:02:43.095Z,85.61
2017-12-22T05:03:52.898Z,85.61
2017-12-22T05:05:02.713Z,85.71
2017-12-22T05:06:12.773Z,85.71
2017-12-22T05:07:22.887Z,85.42
2017-12-22T05:08:32.954Z,85.42
2017-12-22T05:09:42.748Z,85.61
2017-12-22T05:10:52.809Z,85.61
2017-12-22T05:12:02.865Z,85.42
2017-12-22T05:13:12.971Z,85.71
2017-12-22T05:14:22.829Z,85.42
2017-12-22T05:15:32.926Z,85.61
2017-12-22T05:16:42.972Z,85.61
2017-12-22T05:17:52.769Z,85.42
2017-12-22T05:19:02.625Z,85.52
2017-12-22T05:20:12.680Z,85.52
2017-12-22T05:21:22.733Z,85.61
2017-12-22T05:22:32.815Z,85.61
2017-12-22T05:23:42.602Z,85.61
2017-12-22T05:24:52.449Z,85.52
2017-12-22T05:26:01.977Z,85.42
2017-12-22T05:27:12.032Z,85.8
2017-12-22T05:28:21.828Z,85.9
2017-12-22T05:29:31.875Z,85.8
2017-12-22T05:30:41.985Z,85.71
2017-12-22T05:31:51.783Z,85.9
2017-12-22T05:33:01.582Z,85.42
2017-12-22T05:34:11.642Z,85.61
2017-12-22T05:35:21.449Z,85.52
2017-12-22T05:36:31.244Z,85.42
2017-12-22T05:37:41.051Z,85.61
2017-12-22T05:38:50.582Z,85.61
2017-12-22T05:40:00.623Z,85.71
2017-12-22T05:41:10.664Z,85.61
2017-12-22T05:42:20.735Z,85.99
2017-12-22T05:43:30.785Z,86.09
2017-12-22T05:44:40.842Z,85.61
2017-12-22T05:45:50.372Z,85.99
2017-12-22T05:47:00.440Z,86.09
2017-12-22T05:48:09.459Z,86.09
2017-12-22T05:49:19.271Z,85.61
2017-12-22T05:50:29.069Z,85.61
2017-12-22T05:51:39.120Z,85.52
2017-12-22T05:52:48.911Z,85.52
2017-12-22T05:53:59.024Z,85.52
2017-12-22T05:55:08.816Z,85.52
2017-12-22T05:56:18.612Z,85.42
2017-12-22T05:57:28.454Z,85.61
2017-12-22T05:58:38.502Z,85.61
2017-12-22T05:59:48.078Z,85.42
2017-12-22T06:00:57.872Z,85.33
2017-12-22T06:02:07.922Z,85.42
2017-12-22T06:03:17.703Z,85.61
2017-12-22T06:04:27.747Z,85.9
2017-12-22T06:05:37.550Z,85.8
2017-12-22T06:06:47.587Z,85.99
2017-12-22T06:07:57.653Z,85.61
2017-12-22T06:09:07.724Z,85.61
2017-12-22T06:10:17.779Z,85.71
2017-12-22T06:11:27.883Z,86.09
2017-12-22T06:12:37.688Z,85.66
2017-12-22T06:13:47.758Z,85.61
2017-12-22T06:14:57.534Z,85.56
2017-12-22T06:16:07.576Z,85.66
2017-12-22T06:17:17.623Z,85.94
2017-12-22T06:18:27.407Z,85.75
2017-12-22T06:19:37.216Z,85.85
2017-12-22T06:20:47.259Z,86.22
2017-12-22T06:21:57.069Z,85.75
2017-12-22T06:23:07.124Z,85.66
2017-12-22T06:24:16.904Z,85.56
2017-12-22T06:25:26.690Z,85.75
2017-12-22T06:26:36.489Z,86.04
2017-12-22T06:27:46.282Z,85.66
2017-12-22T06:28:55.564Z,85.56
2017-12-22T06:30:05.367Z,85.56
2017-12-22T06:31:14.902Z,86.13
2017-12-22T06:32:24.715Z,85.66
2017-12-22T06:33:34.774Z,85.47
2017-12-22T06:34:44.688Z,85.66
2017-12-22T06:35:54.766Z,85.56
2017-12-22T06:37:04.560Z,86.13
2017-12-22T06:38:14.359Z,85.66
2017-12-22T06:39:24.169Z,85.66
2017-12-22T06:40:34.018Z,85.94
2017-12-22T06:41:44.060Z,85.94
2017-12-22T06:42:54.125Z,85.66
2017-12-22T06:44:03.930Z,85.66
2017-12-22T06:45:13.470Z,85.85
2017-12-22T06:46:23.309Z,85.28
2017-12-22T06:47:33.358Z,85.47
2017-12-22T06:48:43.154Z,85.6
2017-12-22T06:49:53.222Z,85.41
2017-12-22T06:51:03.031Z,85.51
2017-12-22T06:52:13.087Z,85.51
2017-12-22T06:53:22.936Z,85.66
2017-12-22T06:54:32.994Z,85.13
2017-12-22T06:55:42.854Z,85.6
2017-12-22T06:56:52.917Z,85.13
2017-12-22T06:58:02.756Z,85.28
2017-12-22T06:59:12.816Z,85.28
2017-12-22T07:00:22.869Z,85.47
2017-12-22T07:01:32.671Z,85.47
2017-12-22T07:02:42.483Z,85.85
2017-12-22T07:03:52.330Z,85.94
2017-12-22T07:05:02.155Z,85.47
2017-12-22T07:06:11.945Z,85.6
2017-12-22T07:07:21.999Z,85.8
2017-12-22T07:08:32.050Z,85.51
2017-12-22T07:09:42.119Z,85.6
2017-12-22T07:10:52.183Z,85.51
2017-12-22T07:12:01.971Z,85.6
2017-12-22T07:13:12.042Z,85.51
2017-12-22T07:14:22.106Z,85.7
2017-12-22T07:15:32.150Z,85.41
2017-12-22T07:16:42.194Z,85.41
2017-12-22T07:17:52.271Z,85.22
2017-12-22T07:19:02.321Z,85.13
2017-12-22T07:20:12.396Z,85.41
2017-12-22T07:21:22.495Z,85.13
2017-12-22T07:22:32.030Z,85.32
2017-12-22T07:23:42.087Z,85.13
2017-12-22T07:24:51.907Z,85.32
2017-12-22T07:26:01.698Z,85.32
2017-12-22T07:27:11.550Z,84.94
2017-12-22T07:28:21.344Z,85.03
2017-12-22T07:29:31.138Z,85.32
2017-12-22T07:30:41.185Z,85.22
2017-12-22T07:31:50.722Z,85.22
2017-12-22T07:33:00.923Z,85.22
2017-12-22T07:34:10.464Z,85.03
2017-12-22T07:35:20.006Z,84.84
2017-12-22T07:36:30.065Z,85.03
2017-12-22T07:37:39.841Z,85.03
2017-12-22T07:38:49.641Z,85.03
2017-12-22T07:39:59.442Z,85.03
2017-12-22T07:41:09.504Z,85.03
2017-12-22T07:42:19.646Z,84.84
2017-12-22T07:43:29.683Z,84.84
2017-12-22T07:44:39.791Z,85.13
2017-12-22T07:45:49.561Z,85.22
2017-12-22T07:46:59.612Z,84.94
2017-12-22T07:48:09.424Z,85.32
2017-12-22T07:49:19.217Z,85.13
2017-12-22T07:50:29.291Z,85.03
2017-12-22T07:51:39.370Z,85.13
2017-12-22T07:52:49.173Z,85.03
2017-12-22T07:53:59.216Z,85.03
2017-12-22T07:55:09.024Z,85.13
2017-12-22T07:56:19.123Z,85.17
2017-12-22T07:57:29.199Z,84.94
2017-12-22T07:58:39.241Z,85.55
2017-12-22T07:59:49.314Z,85.32
2017-12-22T08:00:59.109Z,84.98
2017-12-22T08:02:09.177Z,85.03
2017-12-22T08:03:19.234Z,84.84
2017-12-22T08:04:29.373Z,84.79
2017-12-22T08:05:39.424Z,84.88
2017-12-22T08:06:49.484Z,84.5
2017-12-22T08:07:59.274Z,84.5
2017-12-22T08:09:09.330Z,84.88
2017-12-22T08:10:19.131Z,84.88
2017-12-22T08:11:29.179Z,84.98
2017-12-22T08:12:39.242Z,84.79
2017-12-22T08:13:49.459Z,84.98
2017-12-22T08:14:59.245Z,84.88
2017-12-22T08:16:09.047Z,84.79
2017-12-22T08:17:18.866Z,84.88
2017-12-22T08:18:28.399Z,84.88
2017-12-22T08:19:38.559Z,84.88
2017-12-22T08:20:48.368Z,84.79
2017-12-22T08:21:58.422Z,84.79
2017-12-22T08:23:08.479Z,84.79
2017-12-22T08:24:18.006Z,84.79
2017-12-22T08:25:28.323Z,85.02
2017-12-22T08:26:38.396Z,84.55
2017-12-22T08:27:48.474Z,84.92
2017-12-22T08:28:58.252Z,84.74
2017-12-22T08:30:08.301Z,84.64
2017-12-22T08:31:18.411Z,84.83
2017-12-22T08:32:28.572Z,85.02
2017-12-22T08:33:38.374Z,84.55
2017-12-22T08:34:48.436Z,85.02
2017-12-22T08:35:58.508Z,85.12
2017-12-22T08:37:08.568Z,84.92
2017-12-22T08:38:18.651Z,84.64
2017-12-22T08:39:28.716Z,84.83
2017-12-22T08:40:38.785Z,84.74
2017-12-22T08:41:48.306Z,84.36
2017-12-22T08:42:57.869Z,84.55
2017-12-22T08:44:07.401Z,84.45
2017-12-22T08:45:17.466Z,84.36
2017-12-22T08:46:28.727Z,84.45
2017-12-22T08:47:38.807Z,84.36
2017-12-22T08:48:48.382Z,84.3
2017-12-22T08:49:57.910Z,84.59
2017-12-22T08:51:07.449Z,84.59
2017-12-22T08:52:17.526Z,84.4
2017-12-22T08:53:27.364Z,84.69
2017-12-22T08:54:37.201Z,84.59
2017-12-22T08:55:47.006Z,84.69
2017-12-22T08:56:57.647Z,84.69
2017-12-22T08:58:07.473Z,84.59
2017-12-22T08:59:17.954Z,84.69
2017-12-22T09:00:28.578Z,84.69
2017-12-22T09:01:38.991Z,84.97
2017-12-22T09:02:51.136Z,84.88
2017-12-22T09:04:04.112Z,85.25
2017-12-22T09:05:16.899Z,85.06
2017-12-22T09:06:30.885Z,85.16
2017-12-22T09:07:43.290Z,85.25
2017-12-22T09:08:54.715Z,85.45
2017-12-22T09:10:06.473Z,85.25
2017-12-22T09:11:18.586Z,84.97
2017-12-22T09:12:30.288Z,84.88
2017-12-22T09:13:41.021Z,84.88
2017-12-22T09:14:53.478Z,85.06
2017-12-22T09:16:03.951Z,84.59
2017-12-22T09:17:14.032Z,84.59
2017-12-22T09:18:24.637Z,85.06
2017-12-22T09:19:35.146Z,85.06
2017-12-22T09:20:45.210Z,84.88
2017-12-22T09:21:55.288Z,84.88
2017-12-22T09:23:05.349Z,84.88
2017-12-22T09:24:15.139Z,84.88
2017-12-22T09:25:25.192Z,84.69
2017-12-22T09:26:34.995Z,84.88
2017-12-22T09:27:45.059Z,84.49
2017-12-22T09:28:54.988Z,84.4
2017-12-22T09:30:04.789Z,84.53
2017-12-22T09:31:14.461Z,84.53
2017-12-22T09:32:25.764Z,84.82
2017-12-22T09:33:36.483Z,84.25
2017-12-22T09:34:46.297Z,84.82
2017-12-22T09:35:56.415Z,84.72
2017-12-22T09:37:06.488Z,84.82
2017-12-22T09:38:16.290Z,84.53
2017-12-22T09:39:26.354Z,84.53
2017-12-22T09:40:36.342Z,84.63
2017-12-22T09:41:46.147Z,84.63
2017-12-22T09:42:56.216Z,84.82
2017-12-22T09:44:06.021Z,84.82
2017-12-22T09:45:15.561Z,84.63
2017-12-22T09:46:25.614Z,84.34
2017-12-22T09:47:35.434Z,84.53
2017-12-22T09:48:46.380Z,84.72
2017-12-22T09:49:56.193Z,84.53
2017-12-22T09:51:05.494Z,84.63
2017-12-22T09:52:15.278Z,84.63
2017-12-22T09:53:24.809Z,84.82
2017-12-22T09:54:34.877Z,84.72
2017-12-22T09:55:44.922Z,84.82
2017-12-22T09:56:54.735Z,84.63
2017-12-22T09:58:05.558Z,84.53
2017-12-22T09:59:15.371Z,84.63
2017-12-22T10:00:25.438Z,84.58
2017-12-22T10:01:35.227Z,84.77
2017-12-22T10:02:44.788Z,84.58
2017-12-22T10:03:54.584Z,84.48
2017-12-22T10:05:04.657Z,84.1
2017-12-22T10:06:14.724Z,83.91
2017-12-22T10:07:24.799Z,83.91
2017-12-22T10:08:34.586Z,84.2
2017-12-22T10:09:44.431Z,84
2017-12-22T10:10:54.493Z,83.95
2017-12-22T10:12:04.302Z,83.76
2017-12-22T10:13:14.365Z,83.86
2017-12-22T10:14:24.161Z,84.33
2017-12-22T10:15:34.265Z,84.23
2017-12-22T10:16:44.324Z,84.14
2017-12-22T10:17:54.443Z,84.23
2017-12-22T10:19:03.726Z,84.52
2017-12-22T10:20:13.802Z,84.14
2017-12-22T10:21:23.944Z,83.95
2017-12-22T10:22:33.749Z,84.05
2017-12-22T10:23:43.544Z,83.95
2017-12-22T10:24:52.829Z,83.95
2017-12-22T10:26:02.624Z,83.95
2017-12-22T10:27:12.685Z,83.95
2017-12-22T10:28:22.477Z,83.95
2017-12-22T10:29:32.323Z,84.23
2017-12-22T10:30:42.119Z,83.99
2017-12-22T10:31:52.173Z,83.95
2017-12-22T10:33:01.983Z,83.99
2017-12-22T10:34:11.551Z,83.99
2017-12-22T10:35:21.623Z,83.99
2017-12-22T10:36:31.701Z,83.9
2017-12-22T10:37:41.815Z,84.19
2017-12-22T10:38:51.923Z,84.28
2017-12-22T10:40:01.989Z,84.09
2017-12-22T10:41:12.121Z,84.38
2017-12-22T10:42:22.193Z,83.99
2017-12-22T10:43:32.239Z,84.09
2017-12-22T10:44:42.152Z,84.19
2017-12-22T10:45:52.223Z,84.19
2017-12-22T10:47:02.369Z,84.28
2017-12-22T10:48:12.538Z,84.47
2017-12-22T10:49:22.350Z,84.38
2017-12-22T10:50:32.408Z,84.23
2017-12-22T10:51:42.474Z,84.19
2017-12-22T10:52:52.534Z,83.84
2017-12-22T10:54:02.592Z,84.19
2017-12-22T10:55:12.647Z,84.23
2017-12-22T10:56:22.515Z,84.61
2017-12-22T10:57:32.043Z,84.61
2017-12-22T10:58:42.106Z,84.61
2017-12-22T10:59:52.198Z,84.42
2017-12-22T11:01:02.261Z,84.32
2017-12-22T11:02:12.105Z,84.52
2017-12-22T11:03:21.952Z,84.42
2017-12-22T11:04:32.000Z,84.23
2017-12-22T11:05:41.531Z,84.23
2017-12-22T11:06:51.345Z,84.13
2017-12-22T11:08:01.219Z,84.23
2017-12-22T11:09:11.297Z,84.32
2017-12-22T11:10:21.392Z,84.52
2017-12-22T11:11:31.640Z,84.52
2017-12-22T11:12:41.703Z,84.61
2017-12-22T11:13:51.246Z,84.52
2017-12-22T11:15:01.357Z,84.52
2017-12-22T11:16:11.149Z,84.52
2017-12-22T11:17:20.969Z,84.32
2017-12-22T11:18:31.034Z,84.13
2017-12-22T11:19:41.134Z,84.32
2017-12-22T11:20:50.930Z,84.89
2017-12-22T11:22:01.570Z,84.8
2017-12-22T11:23:11.119Z,84.8
2017-12-22T11:24:21.206Z,84.8
2017-12-22T11:25:30.800Z,84.99
2017-12-22T11:26:40.590Z,85.18
2017-12-22T11:27:50.649Z,85.38
2017-12-22T11:29:00.737Z,84.85
2017-12-22T11:30:10.554Z,84.7
2017-12-22T11:31:20.671Z,84.8
2017-12-22T11:32:30.193Z,84.56
2017-12-22T11:33:40.282Z,84.66
2017-12-22T11:34:50.636Z,84.56
2017-12-22T11:36:00.680Z,84.76
2017-12-22T11:37:09.945Z,84.56
2017-12-22T11:38:19.997Z,84.76
2017-12-22T11:39:29.803Z,84.7
2017-12-22T11:40:39.865Z,84.76
2017-12-22T11:41:49.681Z,84.56
2017-12-22T11:42:59.812Z,84.76
2017-12-22T11:44:09.885Z,85.05
2017-12-22T11:45:19.952Z,84.95
2017-12-22T11:46:29.766Z,85.05
2017-12-22T11:47:39.581Z,85.14
2017-12-22T11:48:49.683Z,85.14
2017-12-22T11:49:59.759Z,85.14
2017-12-22T11:51:09.809Z,85.24
2017-12-22T11:52:19.853Z,85.38
2017-12-22T11:53:29.662Z,85.58
2017-12-22T11:54:39.735Z,85.38
2017-12-22T11:55:49.563Z,85.48
2017-12-22T11:56:59.373Z,85.29
2017-12-22T11:58:09.454Z,85.29
2017-12-22T11:59:19.518Z,85.19
2017-12-22T12:00:29.441Z,84.91
2017-12-22T12:01:39.254Z,85
2017-12-22T12:02:49.320Z,85.19
2017-12-22T12:03:59.425Z,85
2017-12-22T12:05:09.590Z,85.29
2017-12-22T12:06:19.649Z,85.29
2017-12-22T12:07:29.174Z,85.38
2017-12-22T12:08:39.242Z,85
2017-12-22T12:09:49.044Z,85
2017-12-22T12:10:59.118Z,85.1
2017-12-22T12:12:09.003Z,85.38
2017-12-22T12:13:19.072Z,85.1
2017-12-22T12:14:28.876Z,85.1
2017-12-22T12:15:38.456Z,85.29
2017-12-22T12:16:48.542Z,85.19
2017-12-22T12:17:58.662Z,85.1
2017-12-22T12:19:08.224Z,85.1
2017-12-22T12:20:18.035Z,85.1
2017-12-22T12:21:27.577Z,85.19
2017-12-22T12:22:37.393Z,85.29
2017-12-22T12:23:47.519Z,85.38
2017-12-22T12:24:57.333Z,85.29
2017-12-22T12:26:07.400Z,85
2017-12-22T12:27:17.208Z,85.1
2017-12-22T12:28:27.297Z,85.19
2017-12-22T12:29:37.360Z,85.29
2017-12-22T12:30:47.411Z,85.19
2017-12-22T12:31:57.199Z,85.1
2017-12-22T12:33:07.266Z,85
2017-12-22T12:34:17.045Z,84.72
2017-12-22T12:35:26.845Z,85
2017-12-22T12:36:36.921Z,84.81
2017-12-22T12:37:46.725Z,85.19
2017-12-22T12:38:57.863Z,85
2017-12-22T12:40:07.929Z,85.1
2017-12-22T12:41:18.007Z,84.86
2017-12-22T12:42:27.824Z,85
2017-12-22T12:43:37.670Z,84.91
2017-12-22T12:44:47.226Z,85.19
2017-12-22T12:45:59.937Z,85.29
2017-12-22T12:47:10.910Z,84.62
2017-12-22T12:48:20.985Z,84.52
2017-12-22T12:49:34.055Z,84.91
2017-12-22T12:50:48.803Z,84.05
2017-12-22T12:52:05.173Z,84.14
2017-12-22T12:53:18.937Z,84.14
2017-12-22T12:54:31.741Z,83.8
2017-12-22T12:55:41.948Z,83.51
2017-12-22T12:56:52.063Z,83.9
2017-12-22T12:58:02.206Z,83.9
2017-12-22T12:59:11.475Z,83.7
2017-12-22T13:00:21.560Z,83.8
2017-12-22T13:01:31.363Z,83.37
2017-12-22T13:02:41.169Z,83.37
2017-12-22T13:03:51.287Z,83.84
2017-12-22T13:05:01.339Z,83.75
2017-12-22T13:06:10.884Z,83.65
2017-12-22T13:07:20.941Z,83.56
2017-12-22T13:08:31.004Z,84.13
2017-12-22T13:09:41.118Z,83.84
2017-12-22T13:10:51.192Z,83.56
2017-12-22T13:12:01.245Z,83.46
2017-12-22T13:13:11.331Z,83.8
2017-12-22T13:14:21.400Z,83.99
2017-12-22T13:15:31.482Z,83.65
2017-12-22T13:16:41.548Z,83.84
2017-12-22T13:17:51.615Z,83.84
2017-12-22T13:19:01.408Z,83.75
2017-12-22T13:20:11.214Z,83.75
2017-12-22T13:21:21.286Z,83.75
2017-12-22T13:22:31.076Z,83.84
2017-12-22T13:23:41.145Z,83.46
2017-12-22T13:24:50.950Z,83.46
2017-12-22T13:26:00.486Z,84.42
2017-12-22T13:27:10.633Z,84.03
2017-12-22T13:28:20.706Z,84.66
2017-12-22T13:29:30.790Z,84.56
2017-12-22T13:30:40.314Z,85.14
2017-12-22T13:31:50.137Z,85.1
2017-12-22T13:33:00.286Z,85.29
2017-12-22T13:34:09.819Z,85.29
2017-12-22T13:35:19.887Z,85.96
2017-12-22T13:36:30.353Z,85.67
2017-12-22T13:37:40.426Z,85.72
2017-12-22T13:38:50.554Z,86.1
2017-12-22T13:40:00.158Z,86.2
2017-12-22T13:41:10.249Z,85.72
2017-12-22T13:42:19.779Z,85.82
2017-12-22T13:43:29.852Z,85.87
2017-12-22T13:44:39.964Z,86.35
2017-12-22T13:45:49.531Z,85.87
2017-12-22T13:46:59.087Z,85.97
2017-12-22T13:48:09.143Z,85.58
2017-12-22T13:49:18.939Z,85.68
2017-12-22T13:50:29.037Z,86.44
2017-12-22T13:51:39.111Z,86.06
2017-12-22T13:52:49.159Z,86.06
2017-12-22T13:53:58.686Z,85.77
2017-12-22T13:55:08.504Z,85.68
2017-12-22T13:56:18.574Z,85.54
2017-12-22T13:57:28.623Z,85.83
2017-12-22T13:58:38.415Z,85.83
2017-12-22T13:59:47.698Z,85.73
2017-12-22T14:00:58.036Z,85.83
2017-12-22T14:02:07.888Z,85.64
2017-12-22T14:03:17.960Z,85.73
2017-12-22T14:04:28.025Z,85.64
2017-12-22T14:05:37.814Z,85.93
2017-12-22T14:06:47.614Z,85.83
2017-12-22T14:07:57.731Z,85.83
2017-12-22T14:09:08.282Z,85.35
2017-12-22T14:10:18.295Z,85.93
2017-12-22T14:11:28.369Z,85.45
2017-12-22T14:12:38.435Z,85.25
2017-12-22T14:13:47.981Z,85.73
2017-12-22T14:14:58.068Z,85.25
2017-12-22T14:16:08.105Z,85.35
2017-12-22T14:17:18.192Z,85.54
2017-12-22T14:18:28.260Z,85.73
2017-12-22T14:19:38.319Z,85.93
2017-12-22T14:20:48.162Z,86.02
2017-12-22T14:21:57.674Z,85.6
2017-12-22T14:23:07.490Z,85.88
2017-12-22T14:24:17.286Z,85.69
2017-12-22T14:25:27.405Z,85.69
2017-12-22T14:26:36.688Z,85.69
2017-12-22T14:27:46.520Z,85.78
2017-12-22T14:28:56.335Z,85.78
2017-12-22T14:30:06.140Z,85.88
2017-12-22T14:31:16.009Z,86.07
2017-12-22T14:32:26.097Z,85.97
2017-12-22T14:33:35.910Z,85.78
2017-12-22T14:34:45.708Z,85.97
2017-12-22T14:35:55.537Z,86.16
2017-12-22T14:37:06.643Z,85.6
2017-12-22T14:38:16.704Z,85.88
2017-12-22T14:39:26.494Z,85.78
2017-12-22T14:40:36.571Z,85.74
2017-12-22T14:41:46.375Z,85.74
2017-12-22T14:42:56.476Z,85.64
2017-12-22T14:44:06.540Z,85.55
2017-12-22T14:45:16.065Z,85.55
2017-12-22T14:46:26.217Z,85.74
2017-12-22T14:47:36.022Z,85.93
2017-12-22T14:48:46.128Z,85.55
2017-12-22T14:49:55.670Z,85.55
2017-12-22T14:51:05.466Z,85.84
2017-12-22T14:52:15.534Z,85.84
2017-12-22T14:53:25.070Z,85.55
2017-12-22T14:54:35.134Z,85.84
2017-12-22T14:55:45.192Z,85.93
2017-12-22T14:56:55.294Z,86.22
2017-12-22T14:58:05.112Z,85.84
2017-12-22T14:59:15.190Z,85.74
2017-12-22T15:00:25.291Z,86.12
2017-12-22T15:01:35.369Z,85.84
2017-12-22T15:02:45.452Z,85.74
2017-12-22T15:03:55.526Z,85.55
2017-12-22T15:05:05.606Z,85.55
2017-12-22T15:06:15.661Z,85.84
2017-12-22T15:07:25.770Z,85.64
2017-12-22T15:08:35.830Z,85.64
2017-12-22T15:09:45.623Z,85.84
2017-12-22T15:10:55.699Z,85.84
2017-12-22T15:12:05.533Z,85.93
2017-12-22T15:13:15.045Z,86.32
2017-12-22T15:14:24.587Z,85.74
2017-12-22T15:15:34.376Z,85.64
2017-12-22T15:16:44.452Z,85.84
2017-12-22T15:17:54.318Z,85.55
2017-12-22T15:19:05.248Z,85.74
2017-12-22T15:20:15.327Z,85.64
2017-12-22T15:21:24.880Z,85.84
2017-12-22T15:22:34.930Z,85.55
2017-12-22T15:23:44.782Z,85.74
2017-12-22T15:24:54.345Z,85.74
2017-12-22T15:26:04.420Z,85.55
2017-12-22T15:27:14.233Z,86.22
2017-12-22T15:28:23.495Z,85.93
2017-12-22T15:29:33.079Z,86.12
2017-12-22T15:30:42.883Z,85.99
2017-12-22T15:31:52.670Z,85.6
2017-12-22T15:33:02.736Z,86.18
2017-12-22T15:34:12.818Z,86.27
2017-12-22T15:35:22.944Z,86.27
2017-12-22T15:36:32.744Z,85.99